Time;durP1;ratioP1;P1;durP2;ratioP2;P2;SDS_P1;SDS_P2;PMS_P1;PMS_P2;Temp;Humidity;BMP_temperature;BMP_pressure;BME280_temperature;BME280_humidity;BME280_pressure;Samples;Min_cycle;Max_cycle;Signal;HPM_P1;HPM_P2
2021/10/05 00:00:17;;;;;;;7.73;5.20;;;15.90;99.90;;;;;;5052160;28;20442;-52
2021/10/05 00:02:44;;;;;;;8.43;5.90;;;16.10;99.90;;;;;;5052055;28;20438;-52
2021/10/05 00:05:11;;;;;;;5.90;5.30;;;16.00;99.90;;;;;;5052000;28;20478;-52
2021/10/05 00:07:37;;;;;;;11.13;5.53;;;15.60;99.90;;;;;;5051927;28;20497;-52
2021/10/05 00:10:07;;;;;;;6.83;5.80;;;16.00;99.90;;;;;;5051985;28;20443;-51
2021/10/05 00:12:34;;;;;;;9.40;5.80;;;16.00;99.90;;;;;;5051990;28;20469;-51
2021/10/05 00:15:01;;;;;;;7.27;6.00;;;15.80;99.90;;;;;;5051809;28;20430;-52
2021/10/05 00:17:27;;;;;;;9.87;6.50;;;16.10;99.90;;;;;;5033966;28;20822;-52
2021/10/05 00:19:54;;;;;;;9.97;6.20;;;16.40;99.90;;;;;;5051447;28;20471;-51
2021/10/05 00:22:20;;;;;;;9.33;5.83;;;16.00;99.90;;;;;;5051746;28;20498;-52
2021/10/05 00:24:47;;;;;;;11.20;5.80;;;15.80;99.90;;;;;;5051905;28;20486;-52
2021/10/05 00:27:15;;;;;;;6.30;5.30;;;15.60;99.90;;;;;;5051788;28;20453;-52
2021/10/05 00:29:41;;;;;;;7.90;6.10;;;16.20;99.90;;;;;;5051606;28;20442;-51
2021/10/05 00:32:08;;;;;;;6.30;5.37;;;15.90;99.90;;;;;;5051559;28;20932;-51
2021/10/05 00:34:35;;;;;;;7.10;5.73;;;16.00;99.90;;;;;;5051619;28;20488;-52
2021/10/05 00:37:02;;;;;;;12.40;6.40;;;15.80;99.90;;;;;;5051335;28;20981;-51
2021/10/05 00:39:28;;;;;;;8.37;6.00;;;15.90;99.90;;;;;;5051255;28;20496;-51
2021/10/05 00:41:55;;;;;;;7.20;5.37;;;15.50;99.90;;;;;;5051057;28;20772;-51
2021/10/05 00:44:31;;;;;;;7.20;6.27;;;15.90;99.90;;;;;;5051453;28;20481;-52
2021/10/05 00:47:01;;;;;;;8.97;6.50;;;15.60;99.90;;;;;;5051292;28;20496;-52
2021/10/05 00:49:28;;;;;;;10.70;6.67;;;16.00;99.90;;;;;;5051193;28;20915;-52
2021/10/05 00:51:55;;;;;;;8.40;6.30;;;15.80;99.90;;;;;;5051418;28;20439;-52
2021/10/05 00:54:22;;;;;;;11.77;6.50;;;15.80;99.90;;;;;;5051381;28;20488;-52
2021/10/05 00:56:48;;;;;;;8.93;6.30;;;16.00;99.90;;;;;;5051334;28;20455;-52
2021/10/05 00:59:15;;;;;;;7.50;5.37;;;16.10;99.90;;;;;;5050842;28;20904;-51
2021/10/05 01:01:43;;;;;;;6.33;5.63;;;16.00;99.90;;;;;;5051321;28;20431;-53
2021/10/05 01:04:10;;;;;;;8.20;5.33;;;15.90;99.90;;;;;;5051280;28;20471;-51
2021/10/05 01:06:37;;;;;;;6.40;5.37;;;15.70;99.90;;;;;;5033465;28;20806;-51
2021/10/05 01:09:04;;;;;;;7.77;5.13;;;15.90;99.90;;;;;;5033157;28;20825;-52
2021/10/05 01:11:30;;;;;;;7.00;5.10;;;15.70;99.90;;;;;;5051513;28;20435;-52
2021/10/05 01:13:57;;;;;;;6.30;4.90;;;16.00;99.90;;;;;;5051249;28;20459;-52
2021/10/05 01:16:23;;;;;;;6.30;4.30;;;16.20;99.90;;;;;;5051068;28;20451;-51
2021/10/05 01:18:51;;;;;;;10.67;4.87;;;15.90;99.90;;;;;;5050737;28;20441;-51
2021/10/05 01:21:19;;;;;;;6.57;4.40;;;15.90;99.90;;;;;;5051378;28;20432;-52
2021/10/05 01:23:47;;;;;;;7.57;5.23;;;16.00;99.90;;;;;;5051035;28;20443;-51
2021/10/05 01:26:13;;;;;;;9.33;5.80;;;15.60;99.90;;;;;;5051056;28;21139;-52
2021/10/05 01:28:40;;;;;;;8.10;4.80;;;15.80;99.90;;;;;;5050513;28;20943;-52
2021/10/05 01:31:06;;;;;;;6.47;5.00;;;15.80;99.90;;;;;;5051102;28;20939;-52
2021/10/05 01:33:33;;;;;;;6.60;4.03;;;15.40;99.90;;;;;;5050885;28;20432;-52
2021/10/05 01:35:59;;;;;;;5.70;4.63;;;15.90;99.90;;;;;;5050809;28;20466;-50
2021/10/05 01:38:27;;;;;;;8.37;4.50;;;15.50;99.90;;;;;;5050561;28;20490;-52
2021/10/05 01:40:54;;;;;;;9.30;4.30;;;15.90;99.90;;;;;;5050751;28;20434;-51
2021/10/05 01:43:21;;;;;;;7.03;4.27;;;15.50;99.90;;;;;;5050819;28;20431;-52
2021/10/05 01:45:49;;;;;;;8.20;4.10;;;15.70;99.90;;;;;;5050750;28;20489;-53
2021/10/05 01:48:16;;;;;;;7.07;4.53;;;16.20;99.90;;;;;;5050543;28;20440;-52
2021/10/05 01:50:43;;;;;;;7.47;3.97;;;15.70;99.90;;;;;;5050987;28;20932;-51
2021/10/05 01:53:10;;;;;;;10.70;4.60;;;15.80;99.90;;;;;;5033241;28;20763;-52
2021/10/05 01:55:38;;;;;;;9.03;4.07;;;16.00;99.90;;;;;;5054431;28;20504;-51
2021/10/05 01:58:04;;;;;;;9.90;4.00;;;15.50;99.90;;;;;;5054054;28;20426;-51
2021/10/05 02:00:31;;;;;;;5.97;3.80;;;16.00;99.90;;;;;;5054271;28;20442;-51
2021/10/05 02:02:57;;;;;;;5.93;3.27;;;15.60;99.90;;;;;;5054336;28;20791;-52
2021/10/05 02:05:24;;;;;;;6.23;3.40;;;15.80;99.90;;;;;;5054283;28;20856;-52
2021/10/05 02:07:51;;;;;;;7.23;3.50;;;15.70;99.90;;;;;;5053910;28;20438;-52
2021/10/05 02:10:17;;;;;;;7.77;2.93;;;15.40;99.90;;;;;;5054093;28;20435;-51
2021/10/05 02:12:46;;;;;;;8.47;3.00;;;15.70;99.90;;;;;;5054172;28;20442;-51
2021/10/05 02:15:12;;;;;;;10.63;3.60;;;15.70;99.90;;;;;;5054111;28;20456;-51
2021/10/05 02:17:39;;;;;;;8.33;3.47;;;15.70;99.90;;;;;;5053818;28;20622;-51
2021/10/05 02:20:07;;;;;;;6.07;2.87;;;16.00;99.90;;;;;;5054073;28;20471;-52
2021/10/05 02:22:34;;;;;;;5.03;3.40;;;15.70;99.90;;;;;;5054035;28;20807;-52
2021/10/05 02:25:01;;;;;;;11.43;2.63;;;15.60;99.90;;;;;;5053791;28;20474;-50
2021/10/05 02:27:28;;;;;;;4.40;2.57;;;15.60;99.90;;;;;;5053961;28;20435;-52
2021/10/05 02:29:55;;;;;;;6.17;2.60;;;16.10;99.90;;;;;;5053657;28;20437;-52
2021/10/05 02:32:22;;;;;;;7.17;2.50;;;15.40;99.90;;;;;;5053838;28;20438;-52
2021/10/05 02:34:49;;;;;;;6.63;2.93;;;15.70;99.90;;;;;;5053785;28;20446;-52
2021/10/05 02:37:16;;;;;;;5.20;2.27;;;15.60;99.90;;;;;;5093899;22;20509;-52
2021/10/05 02:39:42;;;;;;;8.87;2.90;;;15.60;99.90;;;;;;5073514;28;20442;-53
2021/10/05 02:42:10;;;;;;;5.23;2.80;;;15.40;99.90;;;;;;5056025;28;20438;-53
2021/10/05 02:44:37;;;;;;;7.17;2.60;;;15.60;99.90;;;;;;5073775;28;20438;-53
2021/10/05 02:47:06;;;;;;;4.80;2.40;;;15.60;99.90;;;;;;5073608;28;20457;-53
2021/10/05 02:49:33;;;;;;;10.63;2.83;;;15.70;99.90;;;;;;5073364;28;20437;-53
2021/10/05 02:52:00;;;;;;;8.73;3.83;;;16.00;99.90;;;;;;5073529;28;20445;-52
2021/10/05 02:54:27;;;;;;;5.97;2.50;;;15.60;99.90;;;;;;5073690;28;20434;-53
2021/10/05 02:56:53;;;;;;;5.50;2.40;;;15.90;99.90;;;;;;5073610;28;20667;-53
2021/10/05 02:59:20;;;;;;;6.30;2.70;;;15.60;99.90;;;;;;5073192;28;20449;-52
2021/10/05 03:01:47;;;;;;;6.53;2.33;;;15.90;99.90;;;;;;5073857;28;20779;-53
2021/10/05 03:04:15;;;;;;;10.37;2.70;;;15.60;99.90;;;;;;5073592;28;20857;-53
2021/10/05 03:06:41;;;;;;;9.27;3.43;;;15.60;99.90;;;;;;5072525;28;20856;-54
2021/10/05 03:09:08;;;;;;;8.83;2.80;;;15.60;99.90;;;;;;5073026;28;20426;-53
2021/10/05 03:11:34;;;;;;;7.30;2.23;;;15.60;99.90;;;;;;5073311;28;20443;-54
2021/10/05 03:14:01;;;;;;;8.77;2.83;;;15.60;99.90;;;;;;5073137;28;20430;-53
2021/10/05 03:16:27;;;;;;;5.00;2.07;;;15.80;99.90;;;;;;5073049;28;20461;-53
2021/10/05 03:18:54;;;;;;;4.87;2.40;;;15.50;99.90;;;;;;5072674;28;20412;-53
2021/10/05 03:21:22;;;;;;;6.53;2.20;;;15.60;99.90;;;;;;5073064;28;20441;-54
2021/10/05 03:23:49;;;;;;;6.27;2.37;;;15.50;99.90;;;;;;5073118;28;20437;-53
2021/10/05 03:26:15;;;;;;;7.60;2.50;;;15.50;99.90;;;;;;5072826;28;20492;-54
2021/10/05 03:28:42;;;;;;;5.87;2.20;;;15.90;99.90;;;;;;5072534;28;20437;-54
2021/10/05 03:31:11;;;;;;;6.23;2.20;;;15.70;99.90;;;;;;5072824;28;20441;-54
2021/10/05 03:33:38;;;;;;;5.00;2.20;;;15.40;99.90;;;;;;5072632;28;20438;-54
2021/10/05 03:36:05;;;;;;;10.63;3.00;;;15.40;99.90;;;;;;5072354;28;20564;-52
2021/10/05 03:38:33;;;;;;;4.07;2.30;;;15.60;99.90;;;;;;5075920;28;20490;-52
2021/10/05 03:40:59;;;;;;;8.13;2.23;;;15.40;99.90;;;;;;5072984;28;20434;-53
2021/10/05 03:43:26;;;;;;;14.03;2.27;;;15.40;99.90;;;;;;5072771;28;20437;-53
2021/10/05 03:45:53;;;;;;;6.17;2.60;;;15.30;99.90;;;;;;5072263;28;20485;-53
2021/10/05 03:48:20;;;;;;;10.90;2.67;;;15.40;99.90;;;;;;5072044;28;20960;-54
2021/10/05 03:50:47;;;;;;;5.87;2.53;;;15.40;99.90;;;;;;5072394;28;20488;-54
2021/10/05 03:53:17;;;;;;;8.93;2.27;;;15.70;99.90;;;;;;5072464;28;20499;-53
2021/10/05 03:55:45;;;;;;;6.10;2.37;;;15.60;99.90;;;;;;5072349;28;20489;-54
2021/10/05 03:58:12;;;;;;;6.77;2.47;;;15.40;99.90;;;;;;5071939;28;20935;-54
2021/10/05 04:00:38;;;;;;;5.30;2.03;;;15.70;99.90;;;;;;5072099;28;20810;-54
2021/10/05 04:03:05;;;;;;;7.00;2.00;;;15.30;99.90;;;;;;5072347;28;20720;-54
2021/10/05 04:05:31;;;;;;;6.80;2.10;;;15.30;99.90;;;;;;5072074;28;20474;-54
2021/10/05 04:07:58;;;;;;;7.87;2.30;;;15.30;99.90;;;;;;5071997;28;20434;-54
2021/10/05 04:10:24;;;;;;;7.73;2.47;;;15.30;99.90;;;;;;5072099;28;20442;-53
2021/10/05 04:12:52;;;;;;;6.57;2.80;;;15.70;99.90;;;;;;5072030;28;20498;-52
2021/10/05 04:15:19;;;;;;;12.27;2.63;;;15.70;99.90;;;;;;5071923;28;20433;-53
2021/10/05 04:17:46;;;;;;;6.00;2.47;;;15.30;99.90;;;;;;5070544;28;20437;-53
2021/10/05 04:20:12;;;;;;;7.30;2.23;;;15.30;99.90;;;;;;5072032;28;20438;-53
2021/10/05 04:22:39;;;;;;;5.80;2.47;;;15.30;99.90;;;;;;5071750;28;20795;-53
2021/10/05 04:25:07;;;;;;;9.10;2.63;;;15.60;99.90;;;;;;5071570;28;20437;-53
2021/10/05 04:27:34;;;;;;;8.47;2.60;;;15.20;99.90;;;;;;5071757;28;20449;-53
2021/10/05 04:30:02;;;;;;;7.13;2.57;;;15.20;99.90;;;;;;5071219;28;20441;-53
2021/10/05 04:32:29;;;;;;;3.80;1.60;;;15.20;99.90;;;;;;5071604;28;20433;-53
2021/10/05 04:34:55;;;;;;;11.10;2.37;;;15.20;99.90;;;;;;5071603;28;20941;-54
2021/10/05 04:37:22;;;;;;;4.63;2.07;;;15.20;99.90;;;;;;5071263;28;20461;-53
2021/10/05 04:39:49;;;;;;;4.57;2.00;;;15.10;99.90;;;;;;5071258;28;20432;-53
2021/10/05 04:42:16;;;;;;;4.93;2.73;;;15.30;99.90;;;;;;5071459;28;20466;-53
2021/10/05 04:44:42;;;;;;;8.57;2.20;;;15.00;99.90;;;;;;5071576;28;20433;-53
2021/10/05 04:47:10;;;;;;;5.90;2.27;;;15.30;99.90;;;;;;5071244;28;20537;-53
2021/10/05 04:49:37;;;;;;;12.63;2.93;;;15.30;99.90;;;;;;5071006;28;20438;-54
2021/10/05 04:52:04;;;;;;;8.40;2.50;;;15.00;99.90;;;;;;5071343;28;20438;-54
2021/10/05 04:54:32;;;;;;;5.00;2.20;;;15.00;99.90;;;;;;5071302;28;20411;-53
2021/10/05 04:56:59;;;;;;;8.17;2.40;;;15.00;99.90;;;;;;5073495;28;21081;-53
2021/10/05 04:59:25;;;;;;;6.70;3.00;;;15.00;99.90;;;;;;5071114;28;20442;-53
2021/10/05 05:01:52;;;;;;;4.70;2.33;;;15.30;99.90;;;;;;5071315;28;20434;-53
2021/10/05 05:04:20;;;;;;;6.00;2.90;;;15.00;99.90;;;;;;5071230;28;20426;-53
2021/10/05 05:06:47;;;;;;;4.70;2.40;;;14.80;99.90;;;;;;5071037;28;20482;-53
2021/10/05 05:09:13;;;;;;;9.70;2.57;;;15.20;99.90;;;;;;5070743;28;20436;-54
2021/10/05 05:11:40;;;;;;;5.57;2.33;;;15.10;99.90;;;;;;5070885;28;20942;-53
2021/10/05 05:14:07;;;;;;;8.50;2.80;;;15.40;99.90;;;;;;5070457;28;20960;-52
2021/10/05 05:16:34;;;;;;;7.77;3.27;;;15.10;99.90;;;;;;5070635;28;20525;-53
2021/10/05 05:19:01;;;;;;;6.43;2.40;;;14.80;99.90;;;;;;5070704;28;20805;-53
2021/10/05 05:21:29;;;;;;;3.37;2.53;;;15.20;99.90;;;;;;5070869;28;20441;-53
2021/10/05 05:23:55;;;;;;;6.30;3.00;;;14.70;99.90;;;;;;5070432;28;20425;-52
2021/10/05 05:26:22;;;;;;;5.87;2.80;;;14.90;99.90;;;;;;5070514;28;20481;-53
2021/10/05 05:28:49;;;;;;;4.33;2.83;;;14.90;99.90;;;;;;5071156;28;20441;-53
2021/10/05 05:31:16;;;;;;;8.73;3.07;;;14.90;99.90;;;;;;5074088;28;20440;-52
2021/10/05 05:33:43;;;;;;;9.93;3.33;;;14.50;99.90;;;;;;5073658;28;20945;-53
2021/10/05 05:36:10;;;;;;;5.63;3.30;;;14.70;99.90;;;;;;5073815;28;20457;-53
2021/10/05 05:38:38;;;;;;;8.93;3.83;;;14.80;99.90;;;;;;5072168;28;20433;-53
2021/10/05 05:41:05;;;;;;;7.13;3.73;;;14.70;99.90;;;;;;5072891;28;20939;-53
2021/10/05 05:43:31;;;;;;;7.20;3.80;;;14.90;99.90;;;;;;5073956;28;20433;-53
2021/10/05 05:45:58;;;;;;;6.03;3.60;;;14.80;99.90;;;;;;5073754;28;20484;-53
2021/10/05 05:48:25;;;;;;;7.13;3.33;;;14.90;99.90;;;;;;5073757;28;20426;-53
2021/10/05 05:50:52;;;;;;;10.13;3.77;;;14.90;99.90;;;;;;5072905;28;20445;-55
2021/10/05 05:53:19;;;;;;;4.27;3.37;;;14.90;99.90;;;;;;5072659;28;20805;-53
2021/10/05 05:55:47;;;;;;;10.73;4.03;;;15.20;99.90;;;;;;5073733;28;20993;-52
2021/10/05 05:58:16;;;;;;;6.10;3.83;;;14.80;99.90;;;;;;5073551;28;20435;-53
2021/10/05 06:00:44;;;;;;;9.23;3.30;;;14.80;99.90;;;;;;5074137;28;20432;-53
2021/10/05 06:03:11;;;;;;;11.37;6.00;;;14.90;99.90;;;;;;5073987;28;21006;-54
2021/10/05 06:05:38;;;;;;;8.60;3.50;;;14.40;99.90;;;;;;5073554;28;20817;-54
2021/10/05 06:08:05;;;;;;;5.67;3.50;;;14.80;99.90;;;;;;5073544;28;20878;-53
2021/10/05 06:10:32;;;;;;;9.00;3.63;;;14.90;99.90;;;;;;5074038;28;20448;-52
2021/10/05 06:13:00;;;;;;;6.40;4.07;;;14.60;99.90;;;;;;5073850;28;20437;-53
2021/10/05 06:15:27;;;;;;;6.37;3.70;;;14.90;99.90;;;;;;5074383;28;20862;-54
2021/10/05 06:17:54;;;;;;;6.20;3.90;;;15.00;99.90;;;;;;5072932;28;20429;-54
2021/10/05 06:20:23;;;;;;;7.87;4.10;;;14.90;99.90;;;;;;5073446;28;20519;-54
2021/10/05 06:22:50;;;;;;;9.03;4.90;;;15.40;99.90;;;;;;5073664;28;20751;-54
2021/10/05 06:25:19;;;;;;;6.40;4.30;;;14.90;99.90;;;;;;5072860;28;20430;-54
2021/10/05 06:27:47;;;;;;;10.50;4.17;;;14.90;99.90;;;;;;5073242;28;20485;-54
2021/10/05 06:30:16;;;;;;;8.00;4.33;;;14.90;99.90;;;;;;5073375;28;20850;-54
2021/10/05 06:32:44;;;;;;;10.07;4.60;;;15.00;99.90;;;;;;5073151;28;20444;-54
2021/10/05 06:35:11;;;;;;;9.40;4.83;;;14.90;99.90;;;;;;5073172;28;20540;-54
2021/10/05 06:37:39;;;;;;;8.93;4.80;;;15.20;99.90;;;;;;5072658;28;20560;-53
2021/10/05 06:40:07;;;;;;;9.80;4.60;;;15.10;99.90;;;;;;5072197;28;20992;-53
2021/10/05 06:42:35;;;;;;;7.03;4.43;;;15.00;99.90;;;;;;5055259;28;20465;-53
2021/10/05 06:45:03;;;;;;;10.43;5.10;;;15.20;99.90;;;;;;5073881;28;20430;-54
2021/10/05 06:47:31;;;;;;;7.07;4.90;;;15.10;99.90;;;;;;5073893;28;20484;-54
2021/10/05 06:49:58;;;;;;;6.20;5.47;;;15.10;99.90;;;;;;5073521;28;20933;-54
2021/10/05 06:52:25;;;;;;;7.10;4.80;;;15.70;99.90;;;;;;5073004;28;20490;-54
2021/10/05 06:54:52;;;;;;;9.67;4.70;;;15.40;99.90;;;;;;5073044;28;20921;-54
2021/10/05 06:57:18;;;;;;;11.20;6.10;;;15.20;99.90;;;;;;5072729;28;20464;-54
2021/10/05 06:59:45;;;;;;;6.30;4.93;;;14.90;99.90;;;;;;5072812;28;20536;-53
2021/10/05 07:02:12;;;;;;;10.53;5.90;;;15.30;99.90;;;;;;5072782;28;20806;-53
2021/10/05 07:04:40;;;;;;;10.90;5.60;;;15.10;99.90;;;;;;5072627;28;20400;-53
2021/10/05 07:07:06;;;;;;;9.53;5.63;;;15.10;99.90;;;;;;5072092;28;20493;-54
2021/10/05 07:09:33;;;;;;;7.40;5.97;;;14.70;99.90;;;;;;5072020;28;20430;-54
2021/10/05 07:12:00;;;;;;;8.20;6.37;;;15.30;99.90;;;;;;5072298;28;20430;-53
2021/10/05 07:14:26;;;;;;;16.40;7.47;;;15.20;99.90;;;;;;5072675;28;20423;-54
2021/10/05 07:16:53;;;;;;;9.00;7.10;;;15.00;99.90;;;;;;5072511;28;20461;-54
2021/10/05 07:19:20;;;;;;;13.43;7.10;;;15.00;99.90;;;;;;5071825;28;20445;-54
2021/10/05 07:21:48;;;;;;;8.93;6.73;;;15.40;99.90;;;;;;5072814;28;20632;-54
2021/10/05 07:24:14;;;;;;;13.40;6.80;;;15.20;99.90;;;;;;5072735;28;20425;-54
2021/10/05 07:26:41;;;;;;;9.60;7.63;;;15.50;99.90;;;;;;5072804;28;20473;-54
2021/10/05 07:29:08;;;;;;;11.87;7.30;;;15.20;99.90;;;;;;5072017;28;20468;-54
2021/10/05 07:31:35;;;;;;;9.47;7.03;;;15.10;99.90;;;;;;5072370;28;20448;-54
2021/10/05 07:34:02;;;;;;;8.43;6.90;;;15.50;99.90;;;;;;5074822;28;20919;-54
2021/10/05 07:36:29;;;;;;;8.30;7.50;;;15.30;99.90;;;;;;5072117;28;20474;-54
2021/10/05 07:38:57;;;;;;;9.70;7.93;;;14.90;99.90;;;;;;5071470;28;20439;-54
2021/10/05 07:41:23;;;;;;;12.40;8.37;;;15.30;99.90;;;;;;5072156;28;20412;-54
2021/10/05 07:43:50;;;;;;;12.03;8.17;;;15.20;99.90;;;;;;5071976;28;20440;-52
2021/10/05 07:46:17;;;;;;;10.90;9.10;;;15.40;99.90;;;;;;5072057;28;20824;-53
2021/10/05 07:48:44;;;;;;;9.13;8.20;;;15.40;99.90;;;;;;5053317;28;20544;-53
2021/10/05 07:51:10;;;;;;;11.60;8.80;;;15.40;99.90;;;;;;5071804;28;20443;-53
2021/10/05 07:53:37;;;;;;;13.20;9.50;;;15.10;99.90;;;;;;5072042;28;20800;-53
2021/10/05 07:56:07;;;;;;;11.93;10.40;;;15.40;99.90;;;;;;5071775;28;20450;-54
2021/10/05 07:58:33;;;;;;;11.50;10.07;;;15.30;99.90;;;;;;5071651;28;20788;-54
2021/10/05 08:01:00;;;;;;;12.27;10.50;;;15.30;99.90;;;;;;5071765;28;20550;-54
2021/10/05 08:03:27;;;;;;;13.43;11.40;;;15.60;99.90;;;;;;5072221;28;20429;-54
2021/10/05 08:05:53;;;;;;;16.77;12.00;;;15.30;99.90;;;;;;5071674;28;20463;-53
2021/10/05 08:08:20;;;;;;;17.80;11.60;;;15.40;99.90;;;;;;5071186;28;20485;-54
2021/10/05 08:10:47;;;;;;;14.97;11.67;;;15.30;99.90;;;;;;5071881;28;20437;-53
2021/10/05 08:13:15;;;;;;;13.87;12.07;;;15.30;99.90;;;;;;5071384;28;20442;-54
2021/10/05 08:15:41;;;;;;;19.70;13.47;;;15.40;99.90;;;;;;5071930;28;20452;-53
2021/10/05 08:18:09;;;;;;;16.27;13.20;;;15.40;99.90;;;;;;5071320;28;20433;-54
2021/10/05 08:20:35;;;;;;;16.40;13.73;;;15.10;99.90;;;;;;5071480;28;20847;-53
2021/10/05 08:23:02;;;;;;;15.53;13.60;;;15.50;99.90;;;;;;5071238;28;20797;-54
2021/10/05 08:25:29;;;;;;;16.60;14.17;;;15.20;99.90;;;;;;5071580;28;20528;-54
2021/10/05 08:27:55;;;;;;;15.23;13.70;;;15.50;99.90;;;;;;5071056;28;20866;-54
2021/10/05 08:30:23;;;;;;;18.00;14.20;;;15.50;99.90;;;;;;5071337;28;20926;-54
2021/10/05 08:32:50;;;;;;;17.03;14.20;;;15.60;99.90;;;;;;5071423;28;20438;-53
2021/10/05 08:35:18;;;;;;;23.53;16.23;;;15.50;99.90;;;;;;5071704;28;20433;-54
2021/10/05 08:37:45;;;;;;;18.10;16.17;;;15.60;99.90;;;;;;5078945;22;20513;-51
2021/10/05 08:40:13;;;;;;;25.40;17.03;;;15.70;99.90;;;;;;5051839;28;20440;-51
2021/10/05 08:42:41;;;;;;;22.50;17.30;;;15.70;99.90;;;;;;5051617;28;20426;-52
2021/10/05 08:45:10;;;;;;;22.43;16.60;;;15.30;99.90;;;;;;5051490;28;20979;-51
2021/10/05 08:47:38;;;;;;;20.33;18.23;;;15.70;99.90;;;;;;5051168;28;20849;-52
2021/10/05 08:50:06;;;;;;;23.03;17.90;;;16.30;99.90;;;;;;5033696;28;20763;-52
2021/10/05 08:52:34;;;;;;;20.70;18.50;;;15.70;99.90;;;;;;5050636;28;20431;-51
2021/10/05 08:55:01;;;;;;;25.27;20.50;;;15.90;99.90;;;;;;5050744;28;20438;-52
2021/10/05 08:57:29;;;;;;;27.47;19.50;;;16.00;99.90;;;;;;5051444;28;20462;-52
2021/10/05 08:59:55;;;;;;;23.40;17.60;;;15.80;99.90;;;;;;5051092;28;20438;-51
2021/10/05 09:02:23;;;;;;;24.93;20.17;;;15.80;99.90;;;;;;5051045;28;20449;-52
2021/10/05 09:04:56;;;;;;;24.67;19.30;;;15.80;99.90;;;;;;5054335;28;20434;-52
2021/10/05 09:07:25;;;;;;;23.60;18.90;;;15.90;99.90;;;;;;5054718;28;20453;-53
2021/10/05 09:09:56;;;;;;;27.20;20.17;;;15.60;99.90;;;;;;5055103;28;20426;-51
2021/10/05 09:12:24;;;;;;;22.77;19.23;;;15.80;99.90;;;;;;5055366;28;20538;-52
2021/10/05 09:14:51;;;;;;;21.83;19.50;;;16.10;99.90;;;;;;5055188;28;20412;-52
2021/10/05 09:17:22;;;;;;;24.60;21.07;;;15.90;99.90;;;;;;5055426;28;20455;-52
2021/10/05 09:19:51;;;;;;;22.00;19.80;;;15.70;99.90;;;;;;5054969;28;20435;-52
2021/10/05 09:22:19;;;;;;;22.13;19.73;;;16.10;99.90;;;;;;5055054;28;20442;-51
2021/10/05 09:24:47;;;;;;;25.10;20.13;;;16.00;99.90;;;;;;5054928;28;20437;-52
2021/10/05 09:27:15;;;;;;;30.47;20.73;;;16.00;99.90;;;;;;5054577;28;20536;-51
2021/10/05 09:29:43;;;;;;;25.53;21.67;;;15.80;99.90;;;;;;5054297;28;20431;-51
2021/10/05 09:32:12;;;;;;;26.47;21.87;;;16.10;99.90;;;;;;5054402;28;20811;-52
2021/10/05 09:34:43;;;;;;;24.73;19.90;;;15.80;99.90;;;;;;5054368;28;20433;-51
2021/10/05 09:37:14;;;;;;;23.50;20.10;;;16.00;99.90;;;;;;5054467;28;20554;-51
2021/10/05 09:39:44;;;;;;;25.73;20.90;;;15.90;99.90;;;;;;5054351;28;20443;-51
2021/10/05 09:42:11;;;;;;;21.20;18.90;;;16.20;99.90;;;;;;5054309;28;20470;-51
2021/10/05 09:44:38;;;;;;;27.40;22.13;;;15.90;99.90;;;;;;5054563;28;20787;-51
2021/10/05 09:47:05;;;;;;;26.43;22.07;;;16.20;99.90;;;;;;5036110;28;20478;-51
2021/10/05 09:49:41;;;;;;;22.20;19.90;;;16.30;99.90;;;;;;5053968;28;20426;-51
2021/10/05 09:52:11;;;;;;;24.57;21.30;;;16.20;99.90;;;;;;5054354;28;20818;-51
2021/10/05 09:54:41;;;;;;;26.87;22.87;;;16.30;99.90;;;;;;5053796;28;20449;-50
2021/10/05 09:57:09;;;;;;;29.33;23.77;;;16.00;99.90;;;;;;5054028;28;20442;-51
2021/10/05 09:59:35;;;;;;;26.67;23.07;;;16.30;99.90;;;;;;5053836;28;20829;-52
2021/10/05 10:02:04;;;;;;;30.87;22.90;;;16.10;99.90;;;;;;5053852;28;20446;-51
2021/10/05 10:04:31;;;;;;;30.20;23.80;;;16.40;99.90;;;;;;5053833;28;20427;-52
2021/10/05 10:07:00;;;;;;;30.37;23.40;;;16.10;99.90;;;;;;5035666;28;20462;-52
2021/10/05 10:09:26;;;;;;;26.10;23.40;;;16.10;99.90;;;;;;5053481;28;20434;-52
2021/10/05 10:11:54;;;;;;;29.63;25.33;;;15.90;99.90;;;;;;5053963;28;20447;-52
2021/10/05 10:14:21;;;;;;;27.40;24.50;;;16.00;99.90;;;;;;5054402;28;20428;-51
2021/10/05 10:16:50;;;;;;;25.43;22.77;;;16.40;99.90;;;;;;5054153;28;20460;-52
2021/10/05 10:19:26;;;;;;;27.67;23.77;;;16.60;99.90;;;;;;5053858;28;20511;-52
2021/10/05 10:21:53;;;;;;;29.23;24.73;;;16.40;99.90;;;;;;5035969;28;20460;-52
2021/10/05 10:24:20;;;;;;;26.37;23.53;;;16.40;99.90;;;;;;5035424;28;20458;-52
2021/10/05 10:26:55;;;;;;;28.83;25.73;;;16.30;99.90;;;;;;5054017;28;20467;-52
2021/10/05 10:29:29;;;;;;;31.13;26.77;;;16.00;99.90;;;;;;5053569;28;20426;-52
2021/10/05 10:31:55;;;;;;;38.00;28.00;;;16.40;99.90;;;;;;5053856;28;20985;-52
2021/10/05 10:34:24;;;;;;;27.87;24.87;;;16.40;99.90;;;;;;5053593;28;20450;-51
2021/10/05 10:36:51;;;;;;;28.63;23.70;;;16.40;99.90;;;;;;5053171;28;20463;-51
2021/10/05 10:39:21;;;;;;;31.87;28.53;;;16.50;99.90;;;;;;5052835;28;20435;-51
2021/10/05 10:41:59;;;;;;;34.60;27.90;;;16.70;99.90;;;;;;5053319;28;20529;-51
2021/10/05 10:44:30;;;;;;;29.97;26.33;;;16.10;99.90;;;;;;5053818;28;20529;-51
2021/10/05 10:47:07;;;;;;;33.60;26.43;;;16.50;99.90;;;;;;5053258;28;21027;-51
2021/10/05 10:49:33;;;;;;;33.50;29.90;;;16.50;99.90;;;;;;5052705;28;20432;-51
2021/10/05 10:52:00;;;;;;;35.57;31.87;;;16.30;99.90;;;;;;5052193;28;20449;-51
2021/10/05 10:54:27;;;;;;;39.93;31.57;;;16.60;99.90;;;;;;5053381;28;20448;-51
2021/10/05 10:57:00;;;;;;;32.80;29.27;;;16.20;99.90;;;;;;5052930;28;20600;-51
2021/10/05 10:59:29;;;;;;;35.27;30.80;;;16.60;99.90;;;;;;5052586;28;20843;-51
2021/10/05 11:02:00;;;;;;;41.70;32.10;;;16.60;99.90;;;;;;5052636;28;20939;-51
2021/10/05 11:04:27;;;;;;;35.00;31.20;;;16.50;99.90;;;;;;5034730;28;20518;-51
2021/10/05 11:06:56;;;;;;;32.67;28.13;;;16.70;99.90;;;;;;5052870;28;20451;-51
2021/10/05 11:09:29;;;;;;;32.83;29.33;;;16.70;99.90;;;;;;5052568;28;20775;-51
2021/10/05 11:11:58;;;;;;;36.97;32.90;;;16.70;99.90;;;;;;5052837;28;20432;-51
2021/10/05 11:14:26;;;;;;;37.37;32.80;;;16.70;99.90;;;;;;5052328;28;20436;-51
2021/10/05 11:16:56;;;;;;;33.63;30.03;;;16.80;99.90;;;;;;5052228;28;20434;-51
2021/10/05 11:19:27;;;;;;;37.67;33.70;;;16.70;99.90;;;;;;5052225;28;20432;-50
2021/10/05 11:21:54;;;;;;;33.80;30.07;;;16.80;99.90;;;;;;5052289;28;20542;-51
2021/10/05 11:24:21;;;;;;;39.20;31.47;;;16.90;99.90;;;;;;5034406;28;20463;-54
2021/10/05 11:26:50;;;;;;;34.30;30.60;;;16.80;99.90;;;;;;5051426;28;20462;-52
2021/10/05 11:29:24;;;;;;;34.33;30.70;;;17.00;99.90;;;;;;5052581;28;20571;-52
2021/10/05 11:31:54;;;;;;;37.10;31.63;;;16.80;99.90;;;;;;5052605;28;20443;-51
2021/10/05 11:34:22;;;;;;;38.50;31.70;;;16.50;99.90;;;;;;5051892;28;20442;-52
2021/10/05 11:36:49;;;;;;;34.20;30.60;;;16.90;99.90;;;;;;5051376;28;20819;-52
2021/10/05 11:39:21;;;;;;;32.73;29.27;;;16.90;99.90;;;;;;5051547;28;20809;-52
2021/10/05 11:41:50;;;;;;;39.43;32.43;;;16.90;99.90;;;;;;5051653;28;20440;-52
2021/10/05 11:44:19;;;;;;;37.90;32.50;;;17.10;99.90;;;;;;5052087;28;20435;-51
2021/10/05 11:47:00;;;;;;;36.73;32.77;;;16.80;99.90;;;;;;5052455;28;20495;-51
2021/10/05 11:49:30;;;;;;;35.97;31.80;;;17.00;99.90;;;;;;5051775;28;20483;-52
2021/10/05 11:51:58;;;;;;;35.17;31.60;;;17.20;99.90;;;;;;5051709;28;20978;-52
2021/10/05 11:54:26;;;;;;;37.03;31.53;;;17.00;99.90;;;;;;5051890;28;20442;-52
2021/10/05 11:56:53;;;;;;;33.43;28.77;;;17.10;99.90;;;;;;5051956;28;20501;-51
2021/10/05 11:59:30;;;;;;;35.03;30.40;;;17.10;99.90;;;;;;5051478;28;20460;-52
2021/10/05 12:02:02;;;;;;;32.70;29.20;;;17.10;99.90;;;;;;5051568;28;20913;-52
2021/10/05 12:04:31;;;;;;;35.70;30.50;;;17.10;99.90;;;;;;5051879;28;20672;-52
2021/10/05 12:07:01;;;;;;;41.33;29.10;;;17.10;99.90;;;;;;5051243;28;20450;-52
2021/10/05 12:09:30;;;;;;;34.43;29.17;;;16.70;99.90;;;;;;5033195;28;20483;-51
2021/10/05 12:12:04;;;;;;;43.23;30.77;;;17.20;99.90;;;;;;5051477;28;20436;-52
2021/10/05 12:14:34;;;;;;;36.07;31.47;;;17.20;99.90;;;;;;5051978;28;20442;-51
2021/10/05 12:17:03;;;;;;;31.17;27.97;;;17.20;99.90;;;;;;5051094;28;20447;-51
2021/10/05 12:19:33;;;;;;;37.83;31.47;;;17.20;99.90;;;;;;5050552;28;20407;-51
2021/10/05 12:22:02;;;;;;;33.37;29.77;;;17.10;99.90;;;;;;5051577;28;20915;-52
2021/10/05 12:24:42;;;;;;;35.13;31.33;;;17.10;99.90;;;;;;5051364;28;20820;-52
2021/10/05 12:27:09;;;;;;;39.17;33.33;;;17.00;99.90;;;;;;5051474;28;20419;-52
2021/10/05 12:29:47;;;;;;;34.47;30.77;;;17.30;99.90;;;;;;5050790;28;20483;-51
2021/10/05 12:32:14;;;;;;;36.83;32.93;;;17.30;99.90;;;;;;5033567;28;20452;-52
2021/10/05 12:34:49;;;;;;;36.53;32.30;;;17.20;99.90;;;;;;5051604;28;21106;-52
2021/10/05 12:37:18;;;;;;;38.03;32.80;;;17.20;99.90;;;;;;5051348;28;20466;-52
2021/10/05 12:39:54;;;;;;;38.80;32.57;;;17.20;99.90;;;;;;5050738;28;20490;-50